Columbus, Ohio
Traffic Map
Current Weather Conditions
Columbus, Ohio
Clear
Clear
69°
Feels Like: 69°
Wind Chill: 69° Ceiling: Unl
Heat Index: 69° Visibility: 10mi
Dew Point: 39° Wind: 0mph
Humidity: 33% Direction: ° ()
Pressure: 30.35in Gusts: 0mph
Raw Report DataKCMH 231751Z 00000KT 10SM CLR 21/04 A3035 RMK AO2 SLP278 T02060039 10211 20083 58004
Traffic Incident Summary
Active as of:
Severity:
Category:
InformationThere was an issue retrieving the traffic information for this location. Please try a different location or try again shortly.
Advertisements
Track Severe Weather on mobile